Neligh, NE (68756)

12:09 PM CDT on July 29, 2016 (GMT -0500)
KNENELIG1 | | Change Station

Elev 1750 ft 42.13 °N, 98.03 °W | Updated 4 minutes ago

Overcast
Overcast
76.2 °F
Feels Like 78 °F
N
1.0
Wind Variable Wind from ENE
Gusts 6.0 mph

Today
High -- | Low -- °F
--% Chance of Precip.
Yesterday
High -- | Low -- °F
Precip. -- in
Pressure 30.11 in
Visibility 10.0 miles
Clouds Scattered Clouds 1800 ft
Mostly Cloudy 2900 ft
Overcast 11000 ft
Heat Index 78 °F
Dew Point 63 °F
Humidity 64%
Rainfall 0.18 in
Snow Depth Not available.
6:22 AM 8:53 PM
Waning Crescent, 20% visible
METAR KBVN 291655Z AUTO 00000KT 10SM SCT018 BKN029 OVC110 22/16 A3011 RMK AO2 T02220163
Pressure 30.11 in
Visibility 10.0 miles
Clouds Scattered Clouds 1800 ft
Mostly Cloudy 2900 ft
Overcast 11000 ft
Heat Index 78 °F
Dew Point 63 °F
Humidity 64%
Rainfall 0.18 in
Snow Depth Not available.
6:22 AM 8:53 PM
Waning Crescent, 20% visible
METAR KBVN 291655Z AUTO 00000KT 10SM SCT018 BKN029 OVC110 22/16 A3011 RMK AO2 T02220163

10-Day Weather Forecast

Almanac

Astronomy

Jul. 29, 2016 Rise Set
Actual Time
Civil Twilight
Nautical Twilight
Astronomical Twilight
Moon
Length of Visible Light
Length of Day
Tomorrow will be .
, % of the Moon is Illuminated

Today's Extremes

State Highs State Lows

Community

WunderPhotos

Upload Photos

1,928,381 photos uploaded!

WunderBlog® & News

Nearby

Air Quality

  Air Quality AQ Index Pollutant
Not available.

Snow Depth

Station Depth Elevation

Earthquake Activity

City Distance Mag. Time & Date
Minimum magnitude displayed is 2.5.

Coastal Water Temperatures

Place Temperature

Stations

Nearby Weather Stations

Station Location Temp. Windchill Dew Point Humidity Wind Precip. Elev Updated Type
                   

Watches & Warnings

There are currently no watches in effect.